Paradise Valley, Nevada Weather observations

Data are for 10 minute period ending at time listed.
 Day   Time   Solar   Ave.   Ave.  Ave.  Vector  Max.   Baro.   Total    
  of    of     Rad.   Air    Rel.  Wind   Wind   Wind  Press.  Precip.   
Year   Day            Temp.  Hum.  Speed  Dir.   Gust                    
2016   (PST)  Kw/m2    F      %     mph   deg.    mph    mb.     in.     
-------------------------------------------------------------------------
 148    3:50   0.00   35.4    87    2.7   273     4.4   863.8    0.00 
 148    4:00   0.00   35.5    86    2.9   262     4.2   863.8    0.00 
 148    4:10   0.00   36.4    83    1.8   281     4.3   864.0    0.00 
 148    4:20   0.00   34.7    86    1.3    27     3.3   864.1    0.00 
 148    4:30   0.01   34.7    88    3.5   248     5.3   864.3    0.00 
 148    4:40   0.02   36.4    84    4.8   268     5.6   864.3    0.00 
 148    4:50   0.03   37.4    82    4.3   245     5.3   864.3    0.00 
 148    5:00   0.06   37.6    82    2.9   260     5.1   864.3    0.00 
 148    5:10   0.08   38.2    82    1.3   267     3.7   864.3    0.00 
 148    5:20   0.10   39.4    81    2.7    18     5.5   864.4    0.00 
 148    5:30   0.12   42.0    74    2.4    39     3.9   864.5    0.00 
 148    5:40   0.14   42.8    74    2.6    20     4.3   864.5    0.00 
 148    5:50   0.18   44.2    72    2.1    41     3.3   864.6    0.00 
 148    6:00   0.21   45.8    67    2.2    88     3.5   864.7    0.00 
 148    6:10   0.25   46.6    64    2.5   129     4.0   864.6    0.00 
 148    6:20   0.28   48.1    58    2.0    91     3.1   864.5    0.00 
 148    6:30   0.31   49.6    57    1.9    82     3.5   864.6    0.00 
 148    6:40   0.35   49.8    56    2.5   101     4.2   864.6    0.00 
 148    6:50   0.37   50.9    52    1.6   118     3.5   864.5    0.00 
 148    7:00   0.42   52.3    53    3.4   147     5.0   864.4    0.00 
 148    7:10   0.45   53.0    49    3.0   111     5.0   864.4    0.00 
 148    7:20   0.48   53.6    48    2.8   137     5.0   864.5    0.00 
 148    7:30   0.51   54.8    45    2.6   134     4.6   864.6    0.00 
 148    7:40   0.55   56.7    43    3.1   162     5.5   864.6    0.00 
 148    7:50   0.58   57.6    40    2.9   202     5.4   864.6    0.00 
 148    8:00   0.60   58.7    39    2.6   209     6.6   864.6    0.00 
 148    8:10   0.58   59.7    40    6.5   340    15.5   864.7    0.00 
 148    8:20   0.57   59.3    43   11.6   351    15.6   864.6    0.00 
 148    8:30   0.70   60.3    40   10.7   342    19.5   864.6    0.00 
 148    8:40   0.73   60.5    38   11.2   341    16.7   864.6    0.00 
 148    8:50   0.76   60.8    36   11.5   346    17.2   864.6    0.00 
 148    9:00   0.79   61.2    36   10.4   344    16.7   864.5    0.00 
 148    9:10   0.72   61.9    34    9.7   354    16.0   864.5    0.00 
 148    9:20   0.80   62.6    31    7.5   347    12.3   864.4    0.00 
 148    9:30   0.86   63.5    31    7.0     2    14.9   864.4    0.00 
 148    9:40   0.89   63.9    30    6.0   252    14.5   864.4    0.00 
 148    9:50   0.84   64.7    30    5.8   205    16.2   864.4    0.00 
 148   10:00   0.79   65.0    29    5.4   154    11.3   864.3    0.00 
 148   10:10   0.79   65.2    29    3.6   249     8.4   864.3    0.00 
 148   10:20   0.85   65.3    28    3.8   177     8.0   864.3    0.00 
 148   10:30   0.89   65.6    27    6.9   259    13.5   864.3    0.00 
 148   10:40   0.66   65.6    26    9.0   272    17.5   864.3    0.00 
 148   10:50   1.00   65.8    26    9.4   274    17.8   864.2    0.00 
 148   11:00   1.02   65.8    25    9.4   276    20.1   864.1    0.00 
 148   11:10   1.03   66.3    25    9.0   294    17.5   864.1    0.00 
 148   11:20   1.04   66.3    25    6.3   296    15.6   864.0    0.00 
 148   11:30   1.07   66.7    25    7.8   313    13.8   863.9    0.00 
 148   11:40   0.71   66.4    25    4.8   320    13.7   863.8    0.00 
 148   11:50   1.15   68.3    25    6.9   246    16.6   863.7    0.00 
 148   12:00   1.07   67.6    24    7.6   284    16.6   863.6    0.00 
 148   12:10   1.07   68.3    25    6.8   298    13.5   863.6    0.00 
 148   12:20   1.07   67.6    24    8.8   267    19.5   863.5    0.00 
 148   12:30   1.04   68.6    24    7.4   278    15.0   863.5    0.00 
 148   12:40   0.83   67.2    23    5.3   350    11.1   863.4    0.00 
 148   12:50   0.92   68.4    24   11.5   278    18.3   863.3    0.00 
 148   13:00   0.87   67.7    23    8.2   293    17.0   863.3    0.00 
 148   13:10   1.03   68.5    22    8.6   301    18.4   863.2    0.00 
 148   13:20   1.09   68.8    22    9.7   279    19.4   863.1    0.00 
 148   13:30   0.87   69.0    22    7.6   327    18.5   863.0    0.00 
 148   13:40   0.26   66.9    23    6.6   354    12.7   862.9    0.00 
 148   13:50   0.46   66.9    24    9.3   296    15.7   862.7    0.00 
 148   14:00   0.51   67.5    23    7.1   326    15.9   862.7    0.00 
 148   14:10   0.46   66.8    26    9.0   317    13.7   862.7    0.00 
 148   14:20   0.88   68.2    24   11.0   333    17.0   862.5    0.00 
 148   14:30   0.80   68.1    25   11.6   326    19.1   862.5    0.00 
 148   14:40   0.79   68.7    23   11.1   326    17.4   862.5    0.00 
 148   14:50   0.86   69.1    22   12.9   314    20.8   862.4    0.00 
 148   15:00   0.80   69.3    21   12.9   306    19.4   862.4    0.00 
 148   15:10   0.76   69.3    20   12.9   332    19.3   862.4    0.00 
 148   15:20   0.62   68.4    20   11.4   332    19.6   862.5    0.00 
 148   15:30   0.30   67.2    21   11.3   321    17.5   862.5    0.00 
 148   15:40   0.64   67.9    21    8.9   317    13.7   862.4    0.00 
 148   15:50   0.63   69.3    19    9.6   298    21.6   862.3    0.00 
 148   16:00   0.59   69.2    19    8.6   312    16.1   862.3    0.00 
 148   16:10   0.55   68.8    19   10.5   313    20.0   862.3    0.00 
 148   16:20   0.51   68.4    20   10.7   303    18.8   862.3    0.00 
 148   16:30   0.48   68.3    21   10.5   324    16.4   862.3    0.00 
 148   16:40   0.45   67.9    22   10.5   340    16.7   862.3    0.00 
 148   16:50   0.41   67.4    22   12.8   331    18.0   862.3    0.00 
 148   17:00   0.38   67.4    21   12.2   315    18.0   862.3    0.00 
 148   17:10   0.34   66.9    21   11.9   326    17.7   862.3    0.00 
 148   17:20   0.29   66.7    21   13.0   317    18.9   862.3    0.00 
 148   17:30   0.17   66.3    21   12.6   317    20.1   862.4    0.00 
 148   17:40   0.23   65.4    23   10.9   333    18.4   862.5    0.00 
 148   17:50   0.20   64.9    23   10.7   345    15.6   862.5    0.00 
 148   18:00   0.14   64.1    24   10.8   333    15.1   862.5    0.00 
 148   18:10   0.14   63.5    25   11.2   340    17.6   862.5    0.00 
 148   18:20   0.11   63.0    25   13.2   332    21.5   862.6    0.00 
 148   18:30   0.08   62.6    25   12.6   323    20.5   862.5    0.00 
 148   18:40   0.04   61.8    25   12.8   320    18.5   862.5    0.00 
 148   18:50   0.02   60.7    26   11.1   317    17.7   862.5    0.00 
 148   19:00   0.02   60.2    26   12.1   313    17.5   862.5    0.00 
 148   19:10   0.01   59.6    26   13.4   310    19.5   862.5    0.00 
 148   19:20   0.01   59.2    27   12.7   310    19.1   862.5    0.00 
 148   19:30   0.00   58.9    26   13.3   313    17.4   862.6    0.00 
 148   19:40   0.00   58.5    26   12.8   316    17.2   862.8    0.00 
 148   19:50   0.00   58.1    26   12.3   320    17.7   862.9    0.00 
 148   20:00   0.00   57.8    25   12.6   322    17.3   862.9    0.00 
 148   20:10   0.00   57.4    25   10.9   321    17.2   863.0    0.00 
 148   20:20   0.00   55.8    29    6.5     7    13.1   863.2    0.00 
 148   20:30   0.00   54.7    30    6.9   354    12.8   863.4    0.00 
 148   20:40   0.00   55.5    28    6.2     7    13.1   863.4    0.00 
 148   20:50   0.00   53.8    32    5.7    54     7.4   863.5    0.00 
 148   21:00   0.00   53.7    32    5.2    49     7.0   863.5    0.00 
 148   21:10   0.00   52.8    34    5.8    48     8.6   863.6    0.00 
 148   21:20   0.00   50.4    38    4.4    42     7.4   863.7    0.00 
 148   21:30   0.00   48.1    45    3.1    35     4.4   863.7    0.00 
 148   21:40   0.00   47.1    49    3.4     5     4.6   863.9    0.00 
 148   21:50   0.00   47.0    50    3.4   310     5.1   864.1    0.00 
 148   22:00   0.00   45.7    51    4.0   297     5.0   864.2    0.00 
 148   22:10   0.00   46.7    44    4.3   328     6.6   864.3    0.00 
 148   22:20   0.00   48.8    38    4.8   335     8.3   864.4    0.00 
 148   22:30   0.00   48.5    40    4.6   334     6.1   864.5    0.00 
 148   22:40   0.00   47.2    43    5.4   328     6.6   864.6    0.00 
 148   22:50   0.00   47.6    42    5.3   336     7.7   864.6    0.00 
 148   23:00   0.00   47.1    43    5.7   330     8.7   864.8    0.00 
 148   23:10   0.00   47.3    42    5.7   335     7.9   864.8    0.00 
 148   23:20   0.00   48.8    37    6.3   333     9.4   864.8    0.00 
 148   23:30   0.00   47.8    38    5.9   328    10.2   864.8    0.00 
 148   23:40   0.00   47.4    38    4.9   330     8.3   864.8    0.00 
 148   23:50   0.00   46.8    39    2.4   350     5.3   865.0    0.00 
 149    0:00   0.00   47.2    39    2.1   344     3.7   865.0    0.00 
 149    0:10   0.00   44.7    46    4.0   335     6.4   865.1    0.00 
 149    0:20   0.00   43.1    49    5.1   328     6.9   865.1    0.00 
 149    0:30   0.00   42.3    49    4.1   311     5.7   865.1    0.00 
 149    0:40   0.00   41.8    47    3.8   320     5.9   865.0    0.00 
 149    0:50   0.00   42.9    45    6.4   322     9.1   865.0    0.00 
 149    1:00   0.00   44.1    40    6.4   323     7.8   865.0    0.00 
 149    1:10   0.00   44.5    39    7.3   325     9.6   864.9    0.00 
 149    1:20   0.00   45.2    39    6.5   331     9.7   864.8    0.00 
 149    1:30   0.00   45.5    38    5.5   326    10.4   864.8    0.00 
 149    1:40   0.00   43.6    42    4.6   330     6.0   864.8    0.00 
 149    1:50   0.00   42.8    43    1.5   343     3.9   864.8    0.00 
 149    2:00   0.00   40.7    54    2.8   123     4.6   864.9    0.00 
 149    2:10   0.00   38.9    63    4.5   157     7.5   865.0    0.00 
 149    2:20   0.00   35.7    77    3.5   223     5.6   864.9    0.00 
 149    2:30   0.00   34.8    76    3.4   244     4.6   864.9    0.00 
 149    2:40   0.00   34.5    68    3.9   268     4.6   864.9    0.00 
 149    2:50   0.00   35.4    63    4.2   280     5.5   865.0    0.00 
 149    3:00   0.00   34.2    65    2.0   274     4.2   865.1    0.00 
 149    3:10   0.00   35.1    67    1.1   198     4.4   865.2    0.00 
 149    3:20   0.00   35.1    66    2.1   296     3.7   865.2    0.00 
 149    3:30   0.00   35.4    63    2.3   306     3.3   865.3    0.00 
 149    3:40   0.00   36.9    56    2.1   316     4.7   865.3    0.00 

Return to Paradise Valley graphs page.


Western Regional Climate Center,wrcc@dri.edu